Time;durP1;ratioP1;P1;durP2;ratioP2;P2;SDS_P1;SDS_P2;PMS_P1;PMS_P2;Temp;Humidity;BMP_temperature;BMP_pressure;BME280_temperature;BME280_humidity;BME280_pressure;Samples;Min_cycle;Max_cycle;Signal;HPM_P1;HPM_P2
2022/08/26 00:01:27;;;;;;;4.10;3.10;;;26.90;56.60;;;27.25;40.46;98310.38;4941783;28;123641;-81
2022/08/26 00:03:53;;;;;;;6.77;4.10;;;26.90;56.80;;;27.21;40.96;98306.81;4944980;28;114336;-81
2022/08/26 00:06:22;;;;;;;4.70;3.00;;;26.90;56.90;;;27.20;41.00;98312.94;4942872;28;114226;-81
2022/08/26 00:08:50;;;;;;;4.33;3.90;;;26.80;57.00;;;27.17;41.16;98297.59;4928094;28;122340;-81
2022/08/26 00:11:17;;;;;;;5.27;3.70;;;26.80;57.10;;;27.15;40.69;98300.03;4941633;28;123430;-79
2022/08/26 00:13:43;;;;;;;7.93;4.30;;;26.80;57.20;;;27.10;40.75;98304.16;4926573;28;114454;-80
2022/08/26 00:16:11;;;;;;;7.43;3.93;;;26.80;57.20;;;27.06;41.24;98303.44;4940918;28;114537;-80
2022/08/26 00:18:38;;;;;;;4.67;3.90;;;26.80;57.30;;;27.04;41.22;98305.91;4937109;28;124058;-79
2022/08/26 00:21:07;;;;;;;6.33;4.00;;;26.70;57.40;;;27.00;41.52;98302.38;4945482;28;124449;-80
2022/08/26 00:23:34;;;;;;;5.43;4.03;;;26.70;57.50;;;26.99;41.49;98309.25;4944918;28;113904;-79
2022/08/26 00:26:02;;;;;;;5.97;3.53;;;26.60;57.60;;;26.95;41.44;98308.53;4944714;28;113205;-81
2022/08/26 00:28:29;;;;;;;6.60;4.60;;;26.60;57.80;;;26.92;41.62;98300.91;4941999;28;123937;-80
2022/08/26 00:30:56;;;;;;;5.30;3.80;;;26.60;57.90;;;26.91;41.64;98301.34;4969066;28;124879;-80
2022/08/26 00:33:22;;;;;;;4.70;3.60;;;26.60;58.10;;;26.86;41.68;98303.44;5013042;28;114924;-79
2022/08/26 00:35:49;;;;;;;3.90;3.40;;;26.50;58.10;;;26.82;41.92;98304.75;5009574;28;113462;-83
2022/08/26 00:38:16;;;;;;;9.23;4.10;;;26.50;58.20;;;26.77;41.86;98297.53;5003454;28;124029;-79
2022/08/26 00:40:53;;;;;;;4.87;3.77;;;26.40;58.30;;;26.75;42.23;98299.22;5007485;28;124182;-79
2022/08/26 00:43:22;;;;;;;4.60;3.70;;;26.40;58.50;;;26.70;42.10;98296.88;5008347;28;114262;-80
2022/08/26 00:45:57;;;;;;;4.70;3.97;;;26.40;58.60;;;26.67;41.97;98304.19;5016407;28;114683;-80
2022/08/26 00:48:27;;;;;;;5.00;4.10;;;26.30;58.80;;;26.66;42.12;98302.63;5006002;28;124087;-79
2022/08/26 00:51:06;;;;;;;6.30;4.10;;;26.30;58.90;;;26.65;42.35;98309.50;5011041;27;124148;-80
2022/08/26 00:53:41;;;;;;;4.80;3.97;;;26.30;59.00;;;26.60;42.58;98310.81;5014104;28;114180;-79
2022/08/26 00:56:46;;;;;;;4.73;3.90;;;26.30;59.20;;;26.55;42.56;98319.03;5007506;28;114447;-79
2022/08/26 00:59:15;;;;;;;4.27;3.57;;;26.20;59.30;;;26.53;42.42;98315.81;5020159;28;123316;-81
2022/08/26 01:01:43;;;;;;;6.60;3.90;;;26.20;59.40;;;26.52;42.34;98317.03;5028152;27;122852;-81
2022/08/26 01:04:13;;;;;;;8.50;4.00;;;26.20;59.50;;;26.49;42.58;98310.19;5037987;27;114697;-82
2022/08/26 01:06:40;;;;;;;6.20;3.63;;;26.10;59.70;;;26.45;42.42;98309.44;5012646;28;113075;-79
2022/08/26 01:09:07;;;;;;;4.97;3.73;;;26.10;59.70;;;26.43;42.63;98309.06;5011750;28;124082;-78
2022/08/26 01:11:34;;;;;;;4.70;3.80;;;26.10;59.90;;;26.39;42.71;98317.63;5009630;28;124340;-80
2022/08/26 01:14:03;;;;;;;4.70;3.90;;;26.00;60.00;;;26.31;43.10;98321.81;5023493;27;113221;-79
2022/08/26 01:16:31;;;;;;;5.73;3.97;;;25.90;60.20;;;26.23;43.18;98314.66;5025299;28;112840;-83
2022/08/26 01:19:13;;;;;;;5.40;3.80;;;25.90;60.50;;;26.15;43.43;98308.31;5024197;27;124005;-79
2022/08/26 01:22:05;;;;;;;5.53;3.80;;;25.80;60.70;;;26.13;43.04;98318.47;5033324;27;123803;-82
2022/08/26 01:24:31;;;;;;;4.87;3.50;;;25.70;60.80;;;26.11;43.59;98312.44;5010406;28;114296;-80
2022/08/26 01:27:08;;;;;;;5.00;3.40;;;25.70;60.90;;;26.09;43.40;98315.72;5023365;28;114242;-81
2022/08/26 01:29:38;;;;;;;5.30;4.47;;;25.70;61.10;;;26.09;43.21;98312.88;5010425;28;123128;-81
2022/08/26 01:32:08;;;;;;;5.60;3.83;;;25.70;61.20;;;26.09;43.54;98312.09;5016040;28;122937;-81
2022/08/26 01:34:37;;;;;;;5.73;4.27;;;25.70;61.40;;;26.08;43.82;98307.63;5028883;28;114155;-81
2022/08/26 01:37:10;;;;;;;6.97;3.97;;;25.70;61.50;;;26.08;43.42;98308.44;5008824;28;113447;-82
2022/08/26 01:39:38;;;;;;;5.10;3.87;;;25.70;61.60;;;26.07;43.39;98311.69;5012273;28;124048;-82
2022/08/26 01:42:09;;;;;;;4.33;3.70;;;25.70;61.60;;;26.06;43.55;98310.91;5010297;28;123028;-79
2022/08/26 01:44:48;;;;;;;4.60;3.23;;;25.70;61.80;;;26.05;43.47;98306.47;5016367;28;113239;-82
2022/08/26 01:47:17;;;;;;;8.23;3.70;;;25.70;61.80;;;26.03;43.87;98305.28;5021642;27;114018;-79
2022/08/26 01:49:45;;;;;;;4.67;3.57;;;25.60;61.80;;;26.03;43.54;98310.94;5027106;27;123817;-83
2022/08/26 01:52:20;;;;;;;4.37;3.00;;;25.70;62.00;;;26.02;43.88;98303.69;5018006;27;123668;-78
2022/08/26 01:54:47;;;;;;;5.80;4.07;;;25.60;62.10;;;26.00;44.18;98316.22;5008620;28;115297;-83
2022/08/26 01:57:15;;;;;;;5.00;4.23;;;25.60;62.10;;;25.99;44.05;98306.16;5009297;28;114877;-80
2022/08/26 01:59:42;;;;;;;5.40;3.87;;;25.60;62.30;;;25.97;44.18;98308.59;5009969;28;124048;-82
2022/08/26 02:02:09;;;;;;;7.47;4.40;;;25.60;62.40;;;25.96;44.26;98307.00;5014870;27;123654;-77
2022/08/26 02:04:42;;;;;;;7.00;4.00;;;25.60;62.60;;;25.96;44.31;98315.50;5010796;28;114209;-80
2022/08/26 02:07:09;;;;;;;5.63;3.57;;;25.50;62.70;;;25.95;43.90;98313.91;5016420;27;113996;-81
2022/08/26 02:09:38;;;;;;;6.03;3.87;;;25.50;62.80;;;25.95;43.98;98319.56;5033070;27;123799;-80
2022/08/26 02:12:06;;;;;;;5.47;4.03;;;25.50;62.80;;;25.93;44.40;98316.34;5017907;28;123975;-82
2022/08/26 02:14:37;;;;;;;3.97;3.67;;;25.50;62.90;;;25.91;43.94;98315.97;5017113;27;114020;-82
2022/08/26 02:17:05;;;;;;;4.00;3.57;;;25.50;62.90;;;25.90;44.03;98328.53;5031531;27;113796;-78
2022/08/26 02:19:37;;;;;;;4.20;3.43;;;25.50;63.00;;;25.87;44.29;98320.09;5011434;27;124105;-82
2022/08/26 02:22:13;;;;;;;6.53;3.90;;;25.50;63.20;;;25.84;44.08;98321.75;5011420;27;124909;-81
2022/08/26 02:24:50;;;;;;;4.50;3.37;;;25.40;63.10;;;25.81;44.63;98322.56;5009671;28;114874;-81
2022/08/26 02:27:22;;;;;;;4.60;3.80;;;25.40;63.30;;;25.78;44.74;98323.41;5010125;28;114454;-81
2022/08/26 02:29:56;;;;;;;4.03;3.50;;;25.40;63.40;;;25.76;44.63;98321.03;5008709;28;124293;-80
2022/08/26 02:32:23;;;;;;;5.10;3.73;;;25.40;63.50;;;25.74;44.61;98322.69;5008635;28;123763;-79
2022/08/26 02:34:50;;;;;;;4.40;3.70;;;25.30;63.50;;;25.73;44.28;98323.91;5014453;28;114522;-81
2022/08/26 02:37:16;;;;;;;3.87;3.47;;;25.30;63.60;;;25.70;44.65;98324.75;5015160;28;113189;-78
2022/08/26 02:39:43;;;;;;;4.03;3.53;;;25.30;63.70;;;25.69;44.50;98314.69;5018895;28;124084;-80
2022/08/26 02:42:10;;;;;;;3.93;3.03;;;25.30;63.90;;;25.68;44.31;98313.06;5016239;28;122923;-80
2022/08/26 02:44:37;;;;;;;3.93;3.37;;;25.30;64.00;;;25.67;44.73;98311.47;5015316;27;115172;-78
2022/08/26 02:47:06;;;;;;;5.13;4.10;;;25.30;64.10;;;25.64;44.82;98313.13;5008658;28;115033;-82
2022/08/26 02:49:33;;;;;;;5.23;4.53;;;25.30;64.10;;;25.63;44.54;98310.69;5007657;28;124555;-82
2022/08/26 02:52:00;;;;;;;4.50;3.50;;;25.30;64.30;;;25.61;45.05;98310.34;5018180;27;123921;-82
2022/08/26 02:54:26;;;;;;;6.63;3.93;;;25.20;64.30;;;25.60;45.15;98314.38;5012020;28;114450;-82
2022/08/26 02:56:54;;;;;;;6.47;3.80;;;25.20;64.40;;;25.56;44.71;98317.28;5013937;28;114280;-78
2022/08/26 02:59:21;;;;;;;3.67;3.37;;;25.20;64.60;;;25.54;45.11;98312.03;5008145;28;123940;-79
2022/08/26 03:01:48;;;;;;;5.03;3.93;;;25.20;64.70;;;25.51;45.03;98309.25;5015669;27;123805;-80
2022/08/26 03:04:15;;;;;;;5.30;3.63;;;25.10;64.70;;;25.49;45.18;98309.66;5011673;28;114254;-80
2022/08/26 03:06:41;;;;;;;4.43;3.63;;;25.10;64.80;;;25.46;45.23;98304.88;5020338;28;113793;-81
2022/08/26 03:09:08;;;;;;;4.40;3.63;;;25.10;64.90;;;25.43;45.25;98308.56;5007489;28;123830;-79
2022/08/26 03:11:36;;;;;;;4.50;3.43;;;25.10;65.00;;;25.40;45.00;98297.28;5008558;28;123641;-81
2022/08/26 03:14:03;;;;;;;4.93;3.70;;;25.10;65.80;;;25.37;45.11;98303.81;5009628;28;114069;-79
2022/08/26 03:16:35;;;;;;;5.63;3.40;;;25.00;65.10;;;25.32;45.48;98308.69;5012562;28;114404;-80
2022/08/26 03:19:04;;;;;;;4.97;3.20;;;25.00;65.30;;;25.29;45.10;98289.75;5017514;27;125173;-79
2022/08/26 03:21:31;;;;;;;5.30;4.07;;;24.90;65.30;;;25.26;45.45;98298.28;5011646;27;124537;-81
2022/08/26 03:23:58;;;;;;;4.47;3.83;;;24.90;65.40;;;25.23;45.38;98299.13;5010470;28;114601;-78
2022/08/26 03:26:26;;;;;;;5.23;3.80;;;24.90;65.50;;;25.20;45.07;98288.66;5027208;28;113334;-82
2022/08/26 03:31:38;;;;;;;7.50;3.90;;;24.80;65.60;;;25.12;45.62;98294.38;5010909;28;124145;-80
2022/08/26 03:34:05;;;;;;;4.17;3.63;;;24.80;65.70;;;25.11;45.38;98295.59;5017394;28;114360;-79
2022/08/26 03:36:31;;;;;;;5.03;3.70;;;24.70;65.80;;;25.09;45.79;98300.06;5014729;28;113794;-79
2022/08/26 03:38:58;;;;;;;4.30;3.60;;;24.70;65.80;;;25.06;45.64;98290.41;5017552;28;124010;-81
2022/08/26 03:41:25;;;;;;;4.90;3.73;;;24.70;66.00;;;25.06;45.71;98300.91;5006675;28;123581;-80
2022/08/26 03:43:51;;;;;;;3.97;3.30;;;24.70;66.20;;;25.03;45.80;98296.91;5010922;27;114407;-79
2022/08/26 03:46:19;;;;;;;6.97;4.00;;;24.70;66.30;;;25.01;45.62;98302.19;5009404;28;114155;-80
2022/08/26 03:48:45;;;;;;;4.77;4.07;;;24.60;66.30;;;24.99;45.87;98290.50;5018633;28;123331;-83
2022/08/26 03:51:16;;;;;;;5.67;3.50;;;24.60;66.70;;;24.98;45.68;98300.19;5013732;28;123077;-79
2022/08/26 03:53:44;;;;;;;6.63;4.87;;;24.60;66.70;;;24.96;46.13;98305.47;5014563;27;114270;-81
2022/08/26 03:56:11;;;;;;;5.80;4.30;;;24.60;66.80;;;24.95;46.06;98305.91;5008794;28;114075;-79
2022/08/26 03:58:38;;;;;;;4.93;4.20;;;24.60;67.10;;;24.93;46.01;98300.66;5008890;28;124558;-78
2022/08/26 04:01:05;;;;;;;4.30;3.50;;;24.50;67.10;;;24.90;46.26;98309.97;5007757;28;123968;-79
2022/08/26 04:06:17;;;;;;;4.87;4.23;;;24.50;67.30;;;24.83;46.55;98298.78;5023209;28;114551;-78
2022/08/26 04:08:44;;;;;;;3.93;3.47;;;24.40;67.20;;;24.81;46.35;98312.50;5010832;28;124059;-79
2022/08/26 04:11:20;;;;;;;5.27;3.77;;;24.40;67.30;;;24.79;46.07;98306.47;5010051;28;123601;-79
2022/08/26 04:13:47;;;;;;;4.23;3.30;;;24.40;67.50;;;24.76;46.17;98310.13;5008707;28;113718;-78
2022/08/26 04:16:16;;;;;;;3.60;3.30;;;24.40;67.50;;;24.74;46.29;98302.06;5009950;28;113860;-80
2022/08/26 04:18:43;;;;;;;5.33;3.63;;;24.30;68.30;;;24.73;46.43;98303.31;5017483;27;123969;-77
2022/08/26 04:21:11;;;;;;;3.43;3.13;;;24.40;67.80;;;24.71;46.46;98302.13;5030360;27;124266;-80
2022/08/26 04:23:38;;;;;;;5.70;3.97;;;24.30;67.90;;;24.69;46.75;98299.72;5007858;27;115113;-78
2022/08/26 04:26:04;;;;;;;4.73;4.00;;;24.30;68.00;;;24.68;46.81;98298.91;5009294;28;114721;-80
2022/08/26 04:28:31;;;;;;;4.30;3.90;;;24.30;68.20;;;24.66;46.98;98295.72;5006409;28;124334;-79
2022/08/26 04:30:57;;;;;;;7.60;4.60;;;24.30;68.30;;;24.64;46.81;98300.19;5015640;28;124424;-78
2022/08/26 04:33:24;;;;;;;5.40;4.30;;;24.20;68.50;;;24.61;46.94;98292.53;5025395;28;114206;-80
2022/08/26 04:36:02;;;;;;;5.80;4.43;;;24.20;68.90;;;24.58;47.36;98294.19;5016733;28;113854;-77
2022/08/26 04:38:29;;;;;;;7.43;4.80;;;24.20;69.30;;;24.53;47.84;98291.81;5025681;27;124196;-80
2022/08/26 04:40:56;;;;;;;8.87;5.13;;;24.20;70.00;;;24.48;47.85;98300.75;5021041;28;123044;-79
2022/08/26 04:43:29;;;;;;;5.80;4.60;;;24.10;70.30;;;24.45;48.07;98301.59;5013146;28;114214;-78
2022/08/26 04:45:59;;;;;;;6.50;4.40;;;24.10;70.70;;;24.43;48.34;98298.34;5026567;27;113920;-78
2022/08/26 04:48:28;;;;;;;10.60;5.10;;;24.00;70.90;;;24.42;48.20;98300.38;5013103;28;124072;-79
2022/08/26 04:50:55;;;;;;;6.37;4.60;;;24.00;71.00;;;24.42;48.04;98302.38;5029999;28;123888;-79
2022/08/26 04:53:25;;;;;;;6.40;4.63;;;24.00;71.00;;;24.41;47.85;98303.59;5020023;27;114302;-78
2022/08/26 04:55:51;;;;;;;4.50;3.87;;;24.00;70.90;;;24.39;47.69;98303.19;5010062;28;113789;-80
2022/08/26 04:58:21;;;;;;;4.47;4.00;;;23.90;70.70;;;24.36;47.62;98299.19;5015155;28;123878;-81
2022/08/26 05:00:50;;;;;;;9.30;4.23;;;23.90;70.60;;;24.34;47.51;98301.66;5011255;28;123875;-79
2022/08/26 05:03:18;;;;;;;7.30;4.63;;;23.90;70.60;;;24.34;47.17;98301.66;5014359;28;114405;-80
2022/08/26 05:05:46;;;;;;;7.60;4.17;;;23.90;70.50;;;24.36;47.35;98306.88;5026179;28;112709;-81
2022/08/26 05:08:15;;;;;;;4.93;4.10;;;23.90;70.50;;;24.38;47.16;98304.44;5021065;28;123977;-79
2022/08/26 05:10:54;;;;;;;5.70;4.57;;;23.90;70.50;;;24.38;46.99;98305.22;5015184;28;123761;-80
2022/08/26 05:13:25;;;;;;;6.30;4.43;;;23.90;70.40;;;24.40;47.65;98316.13;5010629;28;114950;-80
2022/08/26 05:15:52;;;;;;;4.83;4.37;;;23.90;70.50;;;24.42;47.26;98308.00;5018940;28;115629;-81
2022/08/26 05:18:23;;;;;;;7.00;3.90;;;23.90;70.60;;;24.42;47.20;98313.66;5018859;27;122700;-80
2022/08/26 05:20:52;;;;;;;6.23;4.90;;;23.90;70.60;;;24.42;47.29;98308.00;5042136;27;123794;-78
2022/08/26 05:23:21;;;;;;;8.07;4.77;;;23.90;70.50;;;24.45;47.33;98312.88;5010601;28;114649;-79
2022/08/26 05:25:50;;;;;;;9.70;4.33;;;23.90;70.40;;;24.47;47.58;98313.25;5025668;28;114069;-79
2022/08/26 05:28:18;;;;;;;6.10;4.43;;;23.90;70.60;;;24.50;47.56;98309.56;5008841;28;124501;-80
2022/08/26 05:30:45;;;;;;;13.07;4.40;;;24.00;70.80;;;24.53;47.39;98319.25;5009808;28;124002;-79
2022/08/26 05:33:12;;;;;;;7.77;4.27;;;24.10;70.90;;;24.55;47.42;98317.59;5026744;28;114687;-80
2022/08/26 05:35:41;;;;;;;5.63;4.20;;;24.10;71.10;;;24.53;47.62;98314.41;5023156;28;114053;-78
2022/08/26 05:38:13;;;;;;;11.10;4.80;;;24.10;71.10;;;24.53;47.28;98322.88;5014876;28;124364;-79
2022/08/26 05:40:49;;;;;;;4.40;4.00;;;24.10;71.00;;;24.51;47.39;98322.50;5013851;28;123656;-79
2022/08/26 05:43:16;;;;;;;6.13;4.00;;;24.10;70.90;;;24.52;47.17;98324.09;5008987;28;114541;-79
2022/08/26 05:45:47;;;;;;;5.33;4.10;;;25.00;71.70;;;24.52;47.31;98321.25;5023621;27;114247;-79
2022/08/26 05:48:17;;;;;;;4.60;4.10;;;24.10;70.70;;;24.51;47.22;98319.66;5009135;28;123686;-78
2022/08/26 05:50:50;;;;;;;10.47;4.30;;;24.10;70.70;;;24.54;47.02;98326.50;5009680;28;123893;-80
2022/08/26 05:53:20;;;;;;;4.10;3.50;;;24.10;70.60;;;24.55;47.16;98328.91;5017825;27;114431;-78
2022/08/26 05:55:52;;;;;;;5.30;4.80;;;24.10;70.50;;;24.58;46.88;98322.44;5012412;28;113917;-80
2022/08/26 05:58:20;;;;;;;5.20;4.23;;;24.10;70.40;;;24.61;46.66;98332.91;5021977;28;123743;-81
2022/08/26 06:01:07;;;;;;;6.53;4.70;;;24.10;70.30;;;24.62;46.63;98328.84;5008909;27;123911;-78
2022/08/26 06:03:37;;;;;;;7.43;4.10;;;24.20;70.30;;;24.62;46.90;98334.50;5022257;28;115229;-79
2022/08/26 06:06:08;;;;;;;5.20;4.13;;;24.20;70.40;;;24.62;46.84;98333.69;5008063;28;115235;-79
2022/08/26 06:08:35;;;;;;;10.00;4.90;;;24.20;70.20;;;24.62;46.72;98334.50;5010946;28;123387;-81
2022/08/26 06:11:07;;;;;;;5.03;3.80;;;24.20;71.00;;;24.64;46.63;98336.91;5017848;28;123606;-81
2022/08/26 06:13:34;;;;;;;6.07;4.33;;;24.20;70.40;;;24.66;46.98;98335.28;5009450;28;115879;-77
2022/08/26 06:16:05;;;;;;;8.87;4.50;;;24.20;70.30;;;24.67;46.52;98336.88;5011152;28;113837;-80
2022/08/26 06:18:38;;;;;;;5.10;4.20;;;24.20;70.30;;;24.69;46.79;98339.28;5033939;27;123979;-78
2022/08/26 06:21:16;;;;;;;7.27;4.90;;;24.20;70.30;;;24.70;46.94;98340.88;5009992;28;123879;-78
2022/08/26 06:26:32;;;;;;;6.60;4.83;;;24.20;70.30;;;24.72;46.70;98344.09;5017002;28;114523;-79
2022/08/26 06:28:59;;;;;;;6.77;4.80;;;24.20;70.30;;;24.75;46.83;98342.47;5009410;28;124163;-80
2022/08/26 06:31:27;;;;;;;7.90;5.10;;;24.20;70.30;;;24.75;46.75;98353.75;5014545;28;123845;-81
2022/08/26 06:33:54;;;;;;;6.97;4.73;;;24.30;70.50;;;24.79;46.83;98349.66;5013347;28;114118;-80
2022/08/26 06:36:27;;;;;;;9.40;4.60;;;24.30;70.50;;;24.82;46.65;98353.66;5027122;28;114056;-80
2022/08/26 06:38:57;;;;;;;5.87;4.77;;;24.30;70.40;;;24.83;46.84;98358.13;5020720;28;123791;-78
2022/08/26 06:41:24;;;;;;;9.70;4.93;;;24.40;70.50;;;24.89;46.23;98353.59;5015171;28;124101;-79
2022/08/26 06:43:51;;;;;;;6.87;4.60;;;24.40;70.40;;;24.92;46.03;98352.75;5020479;27;114331;-80
2022/08/26 06:46:20;;;;;;;11.43;4.70;;;24.40;70.30;;;24.92;46.41;98353.56;5015156;27;114367;-79
2022/08/26 06:48:47;;;;;;;10.37;4.50;;;24.40;70.10;;;24.94;45.91;98353.16;5009564;28;124203;-80
2022/08/26 06:51:22;;;;;;;8.03;4.87;;;24.40;70.10;;;24.97;46.22;98359.97;5007589;28;123726;-81
2022/08/26 06:53:52;;;;;;;8.73;5.17;;;24.40;70.40;;;24.95;46.73;98349.09;5009636;28;115147;-79
2022/08/26 06:56:23;;;;;;;5.07;4.17;;;24.40;70.60;;;24.97;46.44;98354.34;5012671;28;114720;-79
2022/08/26 06:58:50;;;;;;;10.87;4.87;;;24.40;70.70;;;24.99;46.62;98355.50;5007638;28;124144;-80
2022/08/26 07:01:27;;;;;;;7.57;4.97;;;24.50;70.80;;;25.02;46.50;98356.69;5014019;28;123694;-80
2022/08/26 07:03:58;;;;;;;7.77;4.53;;;24.50;70.80;;;25.03;46.47;98352.63;5031014;27;113410;-78
2022/08/26 07:06:26;;;;;;;10.17;5.50;;;24.50;70.80;;;25.04;46.44;98352.22;5011833;28;113725;-80
2022/08/26 07:09:00;;;;;;;11.70;5.77;;;24.50;70.90;;;25.06;46.55;98354.63;5008627;28;124193;-79
2022/08/26 07:11:27;;;;;;;7.63;4.80;;;24.50;70.90;;;25.07;46.92;98356.25;5012648;27;124145;-79
2022/08/26 07:13:53;;;;;;;10.00;5.43;;;24.50;70.90;;;25.10;46.80;98352.56;5012197;28;114556;-79
2022/08/26 07:16:20;;;;;;;7.17;4.17;;;24.60;71.20;;;25.10;47.05;98353.38;5027021;28;113269;-80
2022/08/26 07:18:47;;;;;;;9.03;4.50;;;24.60;71.30;;;25.13;46.52;98363.03;5015356;27;123292;-80
2022/08/26 07:21:16;;;;;;;6.73;4.70;;;24.60;71.30;;;25.16;46.96;98361.41;5021634;28;123735;-79
2022/08/26 07:23:43;;;;;;;9.60;5.00;;;24.60;71.40;;;25.20;46.67;98363.00;5005609;27;114322;-81
2022/08/26 07:26:18;;;;;;;7.00;4.87;;;24.70;71.40;;;25.23;46.76;98367.00;5014797;28;112448;-80
2022/08/26 07:28:47;;;;;;;5.57;4.80;;;24.70;71.30;;;25.26;46.46;98369.78;5022863;27;122476;-77
2022/08/26 07:31:16;;;;;;;5.43;4.33;;;24.70;71.20;;;25.31;46.74;98360.03;5008589;28;124616;-77
2022/08/26 07:33:43;;;;;;;7.13;4.80;;;24.70;71.10;;;25.33;46.75;98364.03;5019338;27;114349;-78
2022/08/26 07:36:11;;;;;;;18.17;5.87;;;24.80;71.10;;;25.35;46.59;98360.78;5012789;28;114024;-78
2022/08/26 07:38:39;;;;;;;12.70;4.87;;;24.80;71.00;;;25.39;46.52;98361.56;5016241;28;124899;-81
2022/08/26 07:41:07;;;;;;;8.40;4.77;;;24.90;71.10;;;25.46;46.27;98367.09;5010967;28;123852;-80
2022/08/26 07:43:36;;;;;;;19.30;4.57;;;24.90;71.00;;;25.55;46.13;98369.44;5025246;27;115214;-81
2022/08/26 07:46:04;;;;;;;10.13;5.03;;;24.90;70.90;;;25.61;45.94;98364.91;5014140;27;115007;-79
2022/08/26 07:48:31;;;;;;;7.80;5.40;;;25.00;71.00;;;25.67;45.85;98368.06;5010576;28;124044;-85
2022/08/26 07:50:58;;;;;;;10.17;5.93;;;25.00;70.90;;;25.73;45.71;98366.34;5004896;28;123730;-78
2022/08/26 07:53:25;;;;;;;9.13;4.90;;;25.10;70.90;;;25.76;46.21;98365.50;5012476;28;113365;-79
2022/08/26 07:55:52;;;;;;;13.63;5.50;;;25.10;70.90;;;25.80;46.12;98366.25;5018992;28;113730;-79
2022/08/26 07:58:19;;;;;;;10.73;5.30;;;25.10;70.90;;;25.83;46.07;98365.41;5010632;28;124600;-79
2022/08/26 08:00:46;;;;;;;9.07;4.40;;;25.10;70.70;;;25.92;45.62;98370.56;5017200;27;123221;-78
2022/08/26 08:03:13;;;;;;;5.60;4.23;;;25.20;70.80;;;26.02;45.73;98375.25;4992934;28;114011;-77
2022/08/26 08:05:41;;;;;;;11.60;5.90;;;25.30;70.60;;;26.12;45.62;98376.34;5024728;28;113880;-77
2022/08/26 08:08:09;;;;;;;9.60;5.33;;;25.40;70.50;;;26.19;44.86;98376.22;5024272;27;125020;-77
2022/08/26 08:10:36;;;;;;;5.53;4.73;;;25.50;70.10;;;26.26;44.97;98367.63;5023507;28;124012;-77
2022/08/26 08:13:05;;;;;;;4.47;3.90;;;25.50;69.80;;;26.32;44.44;98367.94;5023874;28;114357;-77
2022/08/26 08:15:33;;;;;;;7.90;5.00;;;25.60;69.50;;;26.36;44.51;98374.34;5025692;27;113352;-78
2022/08/26 08:18:00;;;;;;;8.40;4.60;;;25.70;69.40;;;26.40;44.68;98370.22;5017732;28;124263;-78
2022/08/26 08:20:28;;;;;;;7.10;4.70;;;25.70;69.10;;;26.44;44.26;98367.34;5016396;28;123066;-77
2022/08/26 08:22:55;;;;;;;8.73;5.10;;;25.70;68.90;;;26.52;43.94;98365.19;5026391;27;113333;-80
2022/08/26 08:25:23;;;;;;;6.27;4.77;;;25.80;68.80;;;26.59;44.19;98368.72;5010293;28;114069;-76
2022/08/26 08:27:49;;;;;;;4.57;3.93;;;25.90;68.70;;;26.66;44.05;98364.97;5021025;27;124448;-80
2022/08/26 08:30:20;;;;;;;8.10;4.10;;;26.00;68.50;;;26.74;43.97;98360.78;5021902;28;123705;-80
2022/08/26 08:32:47;;;;;;;4.13;3.73;;;26.00;68.20;;;26.80;43.94;98361.06;5027289;28;114848;-78
2022/08/26 08:35:16;;;;;;;8.83;4.07;;;26.10;68.00;;;26.89;43.53;98358.47;5020823;28;114985;-79
2022/08/26 08:37:44;;;;;;;6.30;3.80;;;26.20;67.80;;;26.99;43.50;98359.50;5024009;27;123944;-79
2022/08/26 08:40:16;;;;;;;8.33;4.03;;;26.30;67.70;;;27.08;43.21;98356.88;5024746;28;123809;-80
2022/08/26 08:43:03;;;;;;;6.20;4.00;;;26.30;67.20;;;27.18;42.52;98355.91;5024524;28;114469;-78
2022/08/26 08:45:38;;;;;;;7.03;4.70;;;26.40;66.90;;;27.25;42.52;98352.94;5020219;28;114931;-80
2022/08/26 08:48:29;;;;;;;5.10;4.30;;;26.50;66.20;;;27.28;42.26;98348.44;5022394;28;124838;-81
2022/08/26 08:51:07;;;;;;;8.00;4.43;;;26.50;65.80;;;27.29;42.19;98356.47;5017704;27;123264;-79
2022/08/26 08:53:43;;;;;;;4.27;3.73;;;26.60;65.50;;;27.33;42.04;98349.97;5021431;28;115748;-79
2022/08/26 08:56:26;;;;;;;6.83;4.67;;;26.60;65.10;;;27.38;42.08;98340.91;5019856;28;114345;-79
2022/08/26 08:59:00;;;;;;;7.80;4.73;;;26.70;65.30;;;27.48;41.69;98340.69;5023590;28;123825;-78
2022/08/26 09:02:10;;;;;;;7.53;4.40;;;26.80;65.40;;;27.58;41.93;98343.75;5025382;28;123919;-81
2022/08/26 09:05:04;;;;;;;9.40;5.20;;;26.90;65.10;;;27.66;41.95;98337.47;5028148;28;114196;-77
2022/08/26 09:08:02;;;;;;;7.50;4.60;;;27.00;64.80;;;27.74;41.76;98336.06;5021447;28;114218;-77
2022/08/26 09:10:43;;;;;;;6.77;4.00;;;27.10;64.50;;;27.87;41.64;98332.59;5020477;28;123989;-77
2022/08/26 09:13:17;;;;;;;12.47;4.87;;;27.20;64.40;;;27.97;41.04;98331.56;5021269;28;123734;-75
2022/08/26 09:16:02;;;;;;;6.13;4.40;;;27.30;64.00;;;28.03;40.97;98328.97;5022020;28;114393;-78
2022/08/26 09:18:46;;;;;;;6.53;4.17;;;27.40;63.30;;;28.10;40.66;98328.78;5016599;27;114217;-79
2022/08/26 09:21:16;;;;;;;6.40;4.10;;;27.40;63.10;;;28.17;40.70;98335.09;5021108;27;122684;-76
2022/08/26 09:23:44;;;;;;;5.53;3.87;;;27.50;63.20;;;28.24;40.01;98339.81;5020840;28;123779;-75
2022/08/26 09:26:18;;;;;;;5.13;3.70;;;27.60;62.20;;;28.28;39.76;98325.53;5010492;28;115117;-77
2022/08/26 09:28:53;;;;;;;6.23;3.73;;;27.60;61.60;;;28.33;40.13;98325.78;5012518;28;115208;-78
2022/08/26 09:31:28;;;;;;;6.83;3.77;;;27.70;61.50;;;28.40;39.50;98319.94;5029284;27;124244;-79
2022/08/26 09:34:20;;;;;;;7.60;4.67;;;27.80;61.20;;;28.42;39.76;98322.31;5025886;28;122035;-77
2022/08/26 09:36:52;;;;;;;6.23;4.00;;;27.80;60.90;;;28.45;39.38;98323.50;5020411;28;114325;-76
2022/08/26 09:39:27;;;;;;;8.43;4.00;;;27.80;60.80;;;28.49;39.54;98316.47;5018365;28;114145;-75
2022/08/26 09:42:21;;;;;;;6.20;4.50;;;27.90;60.80;;;28.55;39.24;98320.38;5021906;28;124287;-78
2022/08/26 09:45:05;;;;;;;8.80;4.43;;;28.00;60.80;;;28.62;39.40;98308.03;5018640;28;125034;-76
2022/08/26 09:47:47;;;;;;;7.27;4.43;;;28.00;60.70;;;28.70;39.50;98317.19;5014256;28;114349;-79
2022/08/26 09:50:27;;;;;;;4.93;3.60;;;28.10;60.60;;;28.76;39.29;98301.16;5020300;28;113103;-81
2022/08/26 09:53:06;;;;;;;11.17;4.00;;;28.20;60.50;;;28.80;39.12;98290.47;5026989;28;122511;-77
2022/08/26 09:55:33;;;;;;;9.37;4.47;;;28.20;60.20;;;28.87;39.16;98284.59;5022922;28;123524;-78
2022/08/26 09:58:00;;;;;;;6.40;4.57;;;28.30;60.10;;;28.94;38.90;98278.72;5015595;28;114621;-78
2022/08/26 10:00:29;;;;;;;9.73;4.70;;;28.30;60.00;;;28.99;39.03;98275.31;5030516;28;114091;-81
2022/08/26 10:02:59;;;;;;;9.17;4.83;;;28.40;59.80;;;29.05;38.73;98262.16;5022988;28;124151;-78
2022/08/26 10:06:19;;;;;;;11.00;5.07;;;28.50;59.70;;;29.08;38.71;98259.69;5013918;28;123789;-78
2022/08/26 10:08:50;;;;;;;8.70;4.93;;;28.50;59.30;;;29.17;38.52;98262.66;5007560;28;114154;-79
2022/08/26 10:11:42;;;;;;;8.20;5.07;;;28.60;59.40;;;29.23;38.46;98273.03;5001426;28;114176;-78
2022/08/26 10:14:23;;;;;;;10.03;5.53;;;28.70;60.10;;;29.29;38.67;98267.59;4991450;28;124977;-76
2022/08/26 10:16:59;;;;;;;20.30;6.37;;;28.70;59.40;;;29.34;38.90;98261.34;5006877;28;124097;-77
2022/08/26 10:19:50;;;;;;;6.23;4.57;;;28.70;59.50;;;29.41;38.56;98255.41;5001833;28;115496;-76
2022/08/26 10:22:29;;;;;;;10.17;6.03;;;28.80;59.40;;;29.46;38.35;98249.16;4977744;28;114543;-75
2022/08/26 10:25:00;;;;;;;13.53;5.63;;;28.90;59.10;;;29.50;38.16;98244.16;5006697;28;124169;-76
2022/08/26 10:27:42;;;;;;;9.43;5.40;;;28.90;58.80;;;29.56;38.07;98237.91;5005970;28;123862;-76
2022/08/26 10:30:18;;;;;;;15.13;6.17;;;29.00;58.70;;;29.63;38.02;98249.03;4979814;28;114165;-77
2022/08/26 10:32:50;;;;;;;11.40;5.70;;;29.10;58.40;;;29.70;37.83;98241.09;4983137;28;113095;-76
2022/08/26 10:35:18;;;;;;;12.67;5.87;;;29.10;58.10;;;29.81;37.54;98249.31;4999506;28;124459;-77
2022/08/26 10:37:53;;;;;;;10.53;5.63;;;29.20;57.70;;;29.85;37.18;98230.06;4984791;28;123893;-76